Time;durP1;ratioP1;P1;durP2;ratioP2;P2;SDS_P1;SDS_P2;PMS_P1;PMS_P2;Temp;Humidity;BMP_temperature;BMP_pressure;BME280_temperature;BME280_humidity;BME280_pressure;Samples;Min_cycle;Max_cycle;Signal;HPM_P1;HPM_P2
2023/05/02 00:01:56;;;;;;;5.90;5.40;;;;;;;;;;5034625;28;24151;-73
2023/05/02 00:04:23;;;;;;;5.90;5.30;;;;;;;;;;5028835;28;20205;-74
2023/05/02 00:06:52;;;;;;;6.80;5.47;;;;;;;;;;5045265;28;20208;-74
2023/05/02 00:09:20;;;;;;;6.67;6.07;;;;;;;;;;5011208;28;20210;-75
2023/05/02 00:11:47;;;;;;;5.97;5.47;;;;;;;;;;5035665;28;20363;-73
2023/05/02 00:14:14;;;;;;;6.20;5.67;;;;;;;;;;5026408;28;20234;-74
2023/05/02 00:16:42;;;;;;;6.33;5.83;;;;;;;;;;5045226;28;20289;-74
2023/05/02 00:19:09;;;;;;;6.20;5.70;;;;;;;;;;5032745;28;20726;-74
2023/05/02 00:21:36;;;;;;;6.73;6.13;;;;;;;;;;5042139;28;20733;-75
2023/05/02 00:24:04;;;;;;;6.07;5.57;;;;;;;;;;5049854;28;20672;-74
2023/05/02 00:26:31;;;;;;;6.13;5.63;;;;;;;;;;5045846;28;20202;-75
2023/05/02 00:28:59;;;;;;;6.43;5.83;;;;;;;;;;5051801;28;20316;-74
2023/05/02 00:31:26;;;;;;;6.10;5.57;;;;;;;;;;5049368;28;20286;-72
2023/05/02 00:33:54;;;;;;;6.23;5.73;;;;;;;;;;5028464;28;20209;-74
2023/05/02 00:36:21;;;;;;;6.67;6.17;;;;;;;;;;5034362;28;20217;-74
2023/05/02 00:38:49;;;;;;;6.90;6.17;;;;;;;;;;5016719;28;20311;-75
2023/05/02 00:41:16;;;;;;;6.50;5.80;;;;;;;;;;5039872;28;20898;-74
2023/05/02 00:43:44;;;;;;;6.50;5.90;;;;;;;;;;5040146;28;20647;-75
2023/05/02 00:46:12;;;;;;;7.27;6.63;;;;;;;;;;5029086;28;20217;-73
2023/05/02 00:48:39;;;;;;;6.17;5.67;;;;;;;;;;5043323;28;20687;-75
2023/05/02 00:51:10;;;;;;;5.90;5.40;;;;;;;;;;5033594;28;20368;-74
2023/05/02 00:53:38;;;;;;;6.27;5.67;;;;;;;;;;5027709;28;20216;-75
2023/05/02 00:56:05;;;;;;;6.27;5.77;;;;;;;;;;5024276;28;20721;-73
2023/05/02 00:58:33;;;;;;;5.87;5.37;;;;;;;;;;5046572;28;20218;-73
2023/05/02 01:01:07;;;;;;;5.70;5.20;;;;;;;;;;5032539;28;20763;-73
2023/05/02 01:03:38;;;;;;;6.33;5.20;;;;;;;;;;5039945;28;20640;-75
2023/05/02 01:06:15;;;;;;;5.90;5.40;;;;;;;;;;5033505;28;20292;-75
2023/05/02 01:08:55;;;;;;;5.47;4.97;;;;;;;;;;5038857;28;20209;-74
2023/05/02 01:11:43;;;;;;;5.53;5.03;;;;;;;;;;5026123;28;20221;-73
2023/05/02 01:14:11;;;;;;;5.80;5.30;;;;;;;;;;5031698;28;20321;-74
2023/05/02 01:16:40;;;;;;;5.23;4.83;;;;;;;;;;5044006;28;20756;-74
2023/05/02 01:19:12;;;;;;;4.80;4.40;;;;;;;;;;5036076;28;20698;-74
2023/05/02 01:21:40;;;;;;;7.43;5.20;;;;;;;;;;5030445;28;20294;-74
2023/05/02 01:24:12;;;;;;;5.30;4.90;;;;;;;;;;5035994;28;20874;-74
2023/05/02 01:26:39;;;;;;;5.80;5.30;;;;;;;;;;5031740;28;20202;-74
2023/05/02 01:29:08;;;;;;;6.03;5.43;;;;;;;;;;5050502;28;20202;-74
2023/05/02 01:31:36;;;;;;;5.60;5.00;;;;;;;;;;5041888;28;20249;-74
2023/05/02 01:34:05;;;;;;;5.53;5.13;;;;;;;;;;5046388;28;20197;-74
2023/05/02 01:36:33;;;;;;;6.73;5.83;;;;;;;;;;5031760;28;20661;-75
2023/05/02 01:39:01;;;;;;;6.37;5.70;;;;;;;;;;5035821;28;20232;-74
2023/05/02 01:41:30;;;;;;;6.40;5.80;;;;;;;;;;5027095;28;20225;-74
2023/05/02 01:43:58;;;;;;;6.10;5.53;;;;;;;;;;5040932;28;20693;-74
2023/05/02 01:46:27;;;;;;;6.77;6.17;;;;;;;;;;5013659;28;20201;-75
2023/05/02 01:48:56;;;;;;;7.07;6.37;;;;;;;;;;5036786;28;20309;-73
2023/05/02 01:51:28;;;;;;;6.17;5.67;;;;;;;;;;5016300;28;20581;-74
2023/05/02 01:53:56;;;;;;;6.90;6.20;;;;;;;;;;5034299;28;21118;-75
2023/05/02 01:56:24;;;;;;;7.10;6.47;;;;;;;;;;5040833;28;20587;-75
2023/05/02 01:58:55;;;;;;;6.50;5.90;;;;;;;;;;5038915;28;20391;-74
2023/05/02 02:01:26;;;;;;;6.80;6.10;;;;;;;;;;5042948;28;20406;-74
2023/05/02 02:03:58;;;;;;;6.43;5.83;;;;;;;;;;5021640;28;21528;-74
2023/05/02 02:06:26;;;;;;;6.90;6.20;;;;;;;;;;5032959;28;20563;-74
2023/05/02 02:08:54;;;;;;;6.97;6.37;;;;;;;;;;5022221;28;20202;-74
2023/05/02 02:11:24;;;;;;;7.17;6.47;;;;;;;;;;5039742;28;20279;-74
2023/05/02 02:13:54;;;;;;;6.40;5.90;;;;;;;;;;5030380;28;20213;-75
2023/05/02 02:16:25;;;;;;;7.23;6.63;;;;;;;;;;5045123;28;20216;-74
2023/05/02 02:18:54;;;;;;;7.80;7.10;;;;;;;;;;5052336;28;20225;-74
2023/05/02 02:21:23;;;;;;;7.60;6.90;;;;;;;;;;5026832;28;20289;-75
2023/05/02 02:23:51;;;;;;;9.23;8.27;;;;;;;;;;5058430;28;20319;-74
2023/05/02 02:26:20;;;;;;;10.13;9.17;;;;;;;;;;5050801;28;20676;-75
2023/05/02 02:28:48;;;;;;;8.90;8.00;;;;;;;;;;5053777;28;20300;-74
2023/05/02 02:31:15;;;;;;;8.53;7.73;;;;;;;;;;5058286;28;20249;-74
2023/05/02 02:33:43;;;;;;;8.63;7.80;;;;;;;;;;5058232;28;20220;-74
2023/05/02 02:36:29;;;;;;;8.20;7.40;;;;;;;;;;5039284;28;20229;-74
2023/05/02 02:39:00;;;;;;;9.27;7.60;;;;;;;;;;5041992;28;20255;-74
2023/05/02 02:41:30;;;;;;;7.83;7.03;;;;;;;;;;5035220;28;20252;-74
2023/05/02 02:44:05;;;;;;;9.17;8.33;;;;;;;;;;5059164;28;20198;-74
2023/05/02 02:46:38;;;;;;;8.80;7.17;;;;;;;;;;5055327;28;20532;-74
2023/05/02 02:49:15;;;;;;;8.47;7.67;;;;;;;;;;5050957;28;20640;-73
2023/05/02 02:51:50;;;;;;;8.07;7.27;;;;;;;;;;5059082;28;20259;-74
2023/05/02 02:54:19;;;;;;;8.93;8.03;;;;;;;;;;5052453;28;20208;-74
2023/05/02 02:57:12;;;;;;;9.17;8.27;;;;;;;;;;5047307;28;20575;-74
2023/05/02 02:59:41;;;;;;;8.70;7.90;;;;;;;;;;5034077;28;20224;-74
2023/05/02 03:02:11;;;;;;;9.87;8.40;;;;;;;;;;5039664;28;20635;-74
2023/05/02 03:04:44;;;;;;;10.57;9.23;;;;;;;;;;5032770;28;20201;-74
2023/05/02 03:07:11;;;;;;;10.40;9.27;;;;;;;;;;5050264;28;20228;-73
2023/05/02 03:09:42;;;;;;;24.27;15.77;;;;;;;;;;5028840;28;20206;-74
2023/05/02 03:12:10;;;;;;;22.63;14.37;;;;;;;;;;5046354;28;20718;-74
2023/05/02 03:14:37;;;;;;;30.30;19.30;;;;;;;;;;5057499;28;20212;-74
2023/05/02 03:17:07;;;;;;;13.07;10.93;;;;;;;;;;5049162;28;20213;-74
2023/05/02 03:19:34;;;;;;;12.77;10.27;;;;;;;;;;5052982;28;20316;-74
2023/05/02 03:22:02;;;;;;;9.83;8.60;;;;;;;;;;5039268;28;20276;-74
2023/05/02 03:24:29;;;;;;;10.33;8.83;;;;;;;;;;5046894;28;20193;-74
2023/05/02 03:26:58;;;;;;;10.07;8.93;;;;;;;;;;5048178;28;20206;-74
2023/05/02 03:29:27;;;;;;;9.83;8.83;;;;;;;;;;5038455;28;20805;-74
2023/05/02 03:31:54;;;;;;;9.87;8.70;;;;;;;;;;5031766;28;20566;-73
2023/05/02 03:34:22;;;;;;;9.30;8.10;;;;;;;;;;5052052;28;20247;-75
2023/05/02 03:36:50;;;;;;;8.27;7.47;;;;;;;;;;5038489;28;20201;-74
2023/05/02 03:39:17;;;;;;;9.40;8.47;;;;;;;;;;5040387;28;20319;-74
2023/05/02 03:41:45;;;;;;;11.83;10.67;;;;;;;;;;5053118;28;20322;-74
2023/05/02 03:44:12;;;;;;;11.43;10.33;;;;;;;;;;5051790;28;20200;-73
2023/05/02 03:46:40;;;;;;;10.83;9.50;;;;;;;;;;5025981;28;20339;-74
2023/05/02 03:49:08;;;;;;;10.67;9.67;;;;;;;;;;5055320;28;21276;-74
2023/05/02 03:51:35;;;;;;;12.03;10.20;;;;;;;;;;5058775;28;20745;-75
2023/05/02 03:54:03;;;;;;;12.20;10.90;;;;;;;;;;5043796;28;20209;-74
2023/05/02 03:56:30;;;;;;;11.77;10.53;;;;;;;;;;5056569;28;20236;-73
2023/05/02 03:58:57;;;;;;;25.97;18.07;;;;;;;;;;5045312;28;20245;-74
2023/05/02 04:01:24;;;;;;;27.80;18.10;;;;;;;;;;5046105;28;20225;-74
2023/05/02 04:03:52;;;;;;;16.83;13.17;;;;;;;;;;5039302;28;20210;-73
2023/05/02 04:06:19;;;;;;;31.70;20.37;;;;;;;;;;5049702;28;21471;-75
2023/05/02 04:08:47;;;;;;;21.77;15.60;;;;;;;;;;5055800;28;20210;-74
2023/05/02 04:11:14;;;;;;;22.30;16.77;;;;;;;;;;5047449;28;20233;-74
2023/05/02 04:13:42;;;;;;;14.63;13.13;;;;;;;;;;5049732;28;20308;-74
2023/05/02 04:16:09;;;;;;;13.00;11.53;;;;;;;;;;5033016;28;20217;-75
2023/05/02 04:18:37;;;;;;;15.87;13.47;;;;;;;;;;5063764;28;20632;-75
2023/05/02 04:21:04;;;;;;;13.93;11.90;;;;;;;;;;5031842;28;20791;-74
2023/05/02 04:23:32;;;;;;;14.47;12.97;;;;;;;;;;5059380;28;20621;-74
2023/05/02 04:26:00;;;;;;;13.47;12.07;;;;;;;;;;5047127;28;20219;-73
2023/05/02 04:28:27;;;;;;;13.47;12.07;;;;;;;;;;5054049;28;20202;-74
2023/05/02 04:30:56;;;;;;;14.13;12.60;;;;;;;;;;5055597;28;20308;-73
2023/05/02 04:33:24;;;;;;;13.80;12.37;;;;;;;;;;5039540;28;20209;-76
2023/05/02 04:35:52;;;;;;;14.07;12.23;;;;;;;;;;5057605;28;20205;-74
2023/05/02 04:38:20;;;;;;;14.23;11.63;;;;;;;;;;5057519;28;20808;-74
2023/05/02 04:40:51;;;;;;;13.43;11.93;;;;;;;;;;5054111;28;20631;-75
2023/05/02 04:43:19;;;;;;;14.63;12.80;;;;;;;;;;5055582;28;20198;-74
2023/05/02 04:45:49;;;;;;;13.47;12.07;;;;;;;;;;5050683;28;20201;-74
2023/05/02 04:48:17;;;;;;;17.53;14.50;;;;;;;;;;5038199;28;20293;-74
2023/05/02 04:50:45;;;;;;;13.87;12.50;;;;;;;;;;5047145;28;20905;-74
2023/05/02 04:53:14;;;;;;;15.83;14.20;;;;;;;;;;5043506;28;20579;-74
2023/05/02 04:55:42;;;;;;;17.00;13.83;;;;;;;;;;5041905;28;20727;-74
2023/05/02 04:58:11;;;;;;;15.80;14.20;;;;;;;;;;5052024;28;20210;-74
2023/05/02 05:00:41;;;;;;;17.27;14.30;;;;;;;;;;5034035;28;20371;-74
2023/05/02 05:03:11;;;;;;;16.93;15.23;;;;;;;;;;5034847;28;20202;-73
2023/05/02 05:05:39;;;;;;;17.47;15.57;;;;;;;;;;5035009;28;20217;-75
2023/05/02 05:08:10;;;;;;;18.97;15.37;;;;;;;;;;5032538;28;20205;-75
2023/05/02 05:10:39;;;;;;;17.30;15.47;;;;;;;;;;5038099;28;20460;-74
2023/05/02 05:13:08;;;;;;;18.67;14.37;;;;;;;;;;5034326;28;20757;-74
2023/05/02 05:15:37;;;;;;;19.50;15.60;;;;;;;;;;5042349;28;20656;-74
2023/05/02 05:18:07;;;;;;;24.67;18.00;;;;;;;;;;5017447;28;23841;-75
2023/05/02 05:20:37;;;;;;;19.47;16.33;;;;;;;;;;5059633;28;20694;-74
2023/05/02 05:23:06;;;;;;;25.80;19.63;;;;;;;;;;5049861;28;20198;-74
2023/05/02 05:25:35;;;;;;;25.80;19.03;;;;;;;;;;5053299;28;20197;-74
2023/05/02 05:28:03;;;;;;;21.60;17.27;;;;;;;;;;5043110;28;20305;-74
2023/05/02 05:30:33;;;;;;;20.43;17.20;;;;;;;;;;5046496;28;20279;-75
2023/05/02 05:33:01;;;;;;;20.90;17.70;;;;;;;;;;5043488;28;20586;-73
2023/05/02 05:35:31;;;;;;;20.47;17.80;;;;;;;;;;5041613;28;20210;-75
2023/05/02 05:38:00;;;;;;;20.33;17.40;;;;;;;;;;5045493;28;20731;-74
2023/05/02 05:40:29;;;;;;;18.30;16.20;;;;;;;;;;5056906;28;20253;-74
2023/05/02 05:42:57;;;;;;;18.57;16.00;;;;;;;;;;5036998;28;20209;-75
2023/05/02 05:45:26;;;;;;;19.73;17.63;;;;;;;;;;5056549;28;20571;-75
2023/05/02 05:47:54;;;;;;;16.87;15.17;;;;;;;;;;5047898;28;20201;-72
2023/05/02 05:50:23;;;;;;;17.53;15.73;;;;;;;;;;5043904;28;20233;-74
2023/05/02 05:52:52;;;;;;;16.83;15.13;;;;;;;;;;5051775;28;20273;-74
2023/05/02 05:55:21;;;;;;;16.73;14.70;;;;;;;;;;5023847;28;22614;-74
2023/05/02 05:57:49;;;;;;;17.37;15.57;;;;;;;;;;5041815;28;22680;-74
2023/05/02 06:00:17;;;;;;;15.77;14.07;;;;;;;;;;5050941;28;20556;-74
2023/05/02 06:02:45;;;;;;;15.93;14.23;;;;;;;;;;5034547;28;20294;-74
2023/05/02 06:05:14;;;;;;;17.73;15.83;;;;;;;;;;5046342;28;20209;-75
2023/05/02 06:07:43;;;;;;;14.87;13.37;;;;;;;;;;5050661;28;20688;-73
2023/05/02 06:10:12;;;;;;;95.63;42.17;;;;;;;;;;5033025;28;20226;-74
2023/05/02 06:12:43;;;;;;;29.23;19.53;;;;;;;;;;5051433;28;20289;-74
2023/05/02 06:15:13;;;;;;;36.57;22.87;;;;;;;;;;5051099;28;20241;-74
2023/05/02 06:17:42;;;;;;;16.63;14.83;;;;;;;;;;5050274;28;20206;-74
2023/05/02 06:20:11;;;;;;;15.13;13.30;;;;;;;;;;5050137;28;20226;-73
2023/05/02 06:22:39;;;;;;;15.07;13.63;;;;;;;;;;5057297;28;20201;-73
2023/05/02 06:25:10;;;;;;;15.37;13.87;;;;;;;;;;5054970;28;20225;-74
2023/05/02 06:27:41;;;;;;;14.90;13.43;;;;;;;;;;5091000;28;20340;-73
2023/05/02 06:30:09;;;;;;;15.03;13.50;;;;;;;;;;5089755;28;20290;-74
2023/05/02 06:32:38;;;;;;;13.40;12.00;;;;;;;;;;5090762;28;20627;-73
2023/05/02 06:35:07;;;;;;;16.50;14.80;;;;;;;;;;5080214;28;20201;-72
2023/05/02 06:37:35;;;;;;;15.30;13.50;;;;;;;;;;5085659;28;20212;-72
2023/05/02 06:40:04;;;;;;;14.93;13.37;;;;;;;;;;5090280;28;20236;-73
2023/05/02 06:42:32;;;;;;;15.93;14.23;;;;;;;;;;5091510;28;20610;-73
2023/05/02 06:45:00;;;;;;;20.13;17.33;;;;;;;;;;5063609;28;20189;-73
2023/05/02 06:47:28;;;;;;;16.60;14.60;;;;;;;;;;5090268;28;20204;-72
2023/05/02 06:49:56;;;;;;;16.13;13.67;;;;;;;;;;5072432;28;20591;-71
2023/05/02 06:52:25;;;;;;;23.77;17.50;;;;;;;;;;5052131;28;20578;-72
2023/05/02 06:54:54;;;;;;;18.50;15.87;;;;;;;;;;5052457;28;20224;-72
2023/05/02 06:57:22;;;;;;;19.17;16.10;;;;;;;;;;5070498;28;20193;-71
2023/05/02 06:59:51;;;;;;;16.93;15.13;;;;;;;;;;5070566;28;20304;-71
2023/05/02 07:02:19;;;;;;;19.40;15.27;;;;;;;;;;5052768;28;20284;-73
2023/05/02 07:04:47;;;;;;;16.17;14.40;;;;;;;;;;5070250;28;20190;-74
2023/05/02 07:07:17;;;;;;;15.30;13.23;;;;;;;;;;5071538;28;20205;-74
2023/05/02 07:09:45;;;;;;;16.13;13.40;;;;;;;;;;5072894;28;20262;-73
2023/05/02 07:12:13;;;;;;;14.83;13.17;;;;;;;;;;5084697;28;20213;-73
2023/05/02 07:14:45;;;;;;;15.63;13.40;;;;;;;;;;5069259;28;20248;-74
2023/05/02 07:17:16;;;;;;;15.00;13.50;;;;;;;;;;5086152;28;20237;-73
2023/05/02 07:19:44;;;;;;;17.37;14.37;;;;;;;;;;5083749;28;20560;-74
2023/05/02 07:22:15;;;;;;;15.63;13.93;;;;;;;;;;5058789;28;20272;-72
2023/05/02 07:24:48;;;;;;;18.97;15.23;;;;;;;;;;5071786;28;20573;-74
2023/05/02 07:27:16;;;;;;;16.33;14.70;;;;;;;;;;5084549;28;20193;-71
2023/05/02 07:29:45;;;;;;;16.80;15.03;;;;;;;;;;5075147;28;20235;-72
2023/05/02 07:32:14;;;;;;;16.43;14.73;;;;;;;;;;5070334;28;20224;-73
2023/05/02 07:34:42;;;;;;;16.73;14.93;;;;;;;;;;5073049;28;20205;-73
2023/05/02 07:37:10;;;;;;;18.03;15.80;;;;;;;;;;5084907;28;20201;-73
2023/05/02 07:39:39;;;;;;;17.83;16.00;;;;;;;;;;5067537;28;20228;-73
2023/05/02 07:42:08;;;;;;;19.20;16.40;;;;;;;;;;5072239;28;20198;-73
2023/05/02 07:44:36;;;;;;;19.03;16.90;;;;;;;;;;5072000;28;20369;-73
2023/05/02 07:47:05;;;;;;;20.97;16.57;;;;;;;;;;5072469;28;20197;-73
2023/05/02 07:49:34;;;;;;;19.83;17.40;;;;;;;;;;5075189;28;20255;-74
2023/05/02 07:52:02;;;;;;;20.70;18.50;;;;;;;;;;5083004;28;20197;-73
2023/05/02 07:54:34;;;;;;;23.27;19.27;;;;;;;;;;5068374;28;20246;-73
2023/05/02 07:57:04;;;;;;;24.97;21.47;;;;;;;;;;5080283;28;20206;-74
2023/05/02 07:59:35;;;;;;;22.47;20.07;;;;;;;;;;5077986;28;20237;-73
2023/05/02 08:02:04;;;;;;;23.17;19.90;;;;;;;;;;5059162;28;20202;-73
2023/05/02 08:04:33;;;;;;;24.27;21.67;;;;;;;;;;5072824;28;20279;-73
2023/05/02 08:07:02;;;;;;;23.93;20.67;;;;;;;;;;5067306;28;20202;-72
2023/05/02 08:09:30;;;;;;;25.00;21.90;;;;;;;;;;5072815;28;20190;-74
2023/05/02 08:12:07;;;;;;;26.43;21.43;;;;;;;;;;5037388;28;20743;-73
2023/05/02 08:14:36;;;;;;;28.43;22.70;;;;;;;;;;5055731;28;20284;-73
2023/05/02 08:17:05;;;;;;;28.77;23.50;;;;;;;;;;5076355;28;20953;-74
2023/05/02 08:19:33;;;;;;;25.70;21.57;;;;;;;;;;5070867;28;20220;-74
2023/05/02 08:22:06;;;;;;;30.67;23.93;;;;;;;;;;5089964;28;20247;-73
2023/05/02 08:24:37;;;;;;;29.83;23.73;;;;;;;;;;5083327;28;20205;-72
2023/05/02 08:27:06;;;;;;;28.63;23.83;;;;;;;;;;5080664;28;20198;-73
2023/05/02 08:29:34;;;;;;;30.07;24.57;;;;;;;;;;5076607;28;20197;-72
2023/05/02 08:32:03;;;;;;;28.03;23.23;;;;;;;;;;5072817;28;20263;-74
2023/05/02 08:34:32;;;;;;;26.50;22.33;;;;;;;;;;5072244;28;20202;-72
2023/05/02 08:37:00;;;;;;;25.80;22.33;;;;;;;;;;5072801;28;20194;-74
2023/05/02 08:39:32;;;;;;;26.90;23.40;;;;;;;;;;5087274;28;20631;-73
2023/05/02 08:42:05;;;;;;;29.50;23.53;;;;;;;;;;5074052;28;20197;-73
2023/05/02 08:44:33;;;;;;;29.07;23.63;;;;;;;;;;5076849;28;20239;-76
2023/05/02 08:47:02;;;;;;;29.80;23.80;;;;;;;;;;5090563;28;20204;-73
2023/05/02 08:49:32;;;;;;;28.30;23.57;;;;;;;;;;5079341;28;20644;-73
2023/05/02 08:52:01;;;;;;;29.57;23.63;;;;;;;;;;5062815;28;20224;-73
2023/05/02 08:54:29;;;;;;;25.73;22.70;;;;;;;;;;5067828;28;20248;-73
2023/05/02 08:56:58;;;;;;;25.23;22.33;;;;;;;;;;5053227;28;20205;-72
2023/05/02 08:59:26;;;;;;;28.27;23.27;;;;;;;;;;5070586;28;20280;-74
2023/05/02 09:01:59;;;;;;;29.83;24.57;;;;;;;;;;5082176;28;20229;-73
2023/05/02 09:04:31;;;;;;;27.20;24.33;;;;;;;;;;5068249;28;20209;-74
2023/05/02 09:07:01;;;;;;;28.60;23.57;;;;;;;;;;5061611;28;20204;-72
2023/05/02 09:09:30;;;;;;;26.40;23.10;;;;;;;;;;5051640;28;20561;-72
2023/05/02 09:11:57;;;;;;;26.23;23.20;;;;;;;;;;5056040;28;20205;-73
2023/05/02 09:14:25;;;;;;;26.80;22.80;;;;;;;;;;5068544;28;20699;-73
2023/05/02 09:16:58;;;;;;;25.23;22.23;;;;;;;;;;5081890;28;20588;-73
2023/05/02 09:19:26;;;;;;;26.33;21.40;;;;;;;;;;5058860;28;20233;-74
2023/05/02 09:22:00;;;;;;;26.33;21.97;;;;;;;;;;5077375;28;20248;-74
2023/05/02 09:24:28;;;;;;;23.30;20.80;;;;;;;;;;5061578;28;20567;-74
2023/05/02 09:26:57;;;;;;;22.00;19.57;;;;;;;;;;5056508;28;20255;-74
2023/05/02 09:29:27;;;;;;;39.07;28.07;;;;;;;;;;5071001;28;20261;-73
2023/05/02 09:31:54;;;;;;;30.47;24.07;;;;;;;;;;5063285;28;20251;-74
2023/05/02 09:34:23;;;;;;;24.33;21.10;;;;;;;;;;5071447;28;20763;-74
2023/05/02 09:36:52;;;;;;;25.53;22.10;;;;;;;;;;5051642;28;20202;-72
2023/05/02 09:39:22;;;;;;;24.63;21.40;;;;;;;;;;5047291;28;20241;-72
2023/05/02 09:41:52;;;;;;;25.70;21.97;;;;;;;;;;5072466;28;20727;-72
2023/05/02 09:44:26;;;;;;;24.37;19.73;;;;;;;;;;5084694;28;20279;-72
2023/05/02 09:46:56;;;;;;;20.93;18.80;;;;;;;;;;5070383;28;20604;-72
2023/05/02 09:49:43;;;;;;;20.00;17.87;;;;;;;;;;5080044;28;20206;-74
2023/05/02 09:52:12;;;;;;;20.10;18.10;;;;;;;;;;5079801;28;20205;-74
2023/05/02 09:54:40;;;;;;;18.47;16.60;;;;;;;;;;5076787;28;20209;-74
2023/05/02 09:57:09;;;;;;;18.50;16.33;;;;;;;;;;5065710;28;20209;-73
2023/05/02 09:59:41;;;;;;;18.20;16.30;;;;;;;;;;5056552;28;20275;-73
2023/05/02 10:02:09;;;;;;;19.07;15.87;;;;;;;;;;5077595;28;20221;-74
2023/05/02 10:04:38;;;;;;;17.17;15.47;;;;;;;;;;5083734;28;20513;-74
2023/05/02 10:07:09;;;;;;;19.90;15.90;;;;;;;;;;5078177;28;20283;-74
2023/05/02 10:09:37;;;;;;;19.20;16.73;;;;;;;;;;5076266;28;20201;-73
2023/05/02 10:12:05;;;;;;;17.83;15.97;;;;;;;;;;5073063;28;20302;-72
2023/05/02 10:14:35;;;;;;;17.97;16.17;;;;;;;;;;5050540;28;20261;-73
2023/05/02 10:17:12;;;;;;;19.37;16.77;;;;;;;;;;5065401;28;20256;-74
2023/05/02 10:19:52;;;;;;;17.98;16.17;;;;;;;;;;5064854;28;20205;-73
2023/05/02 10:22:25;;;;;;;21.33;17.37;;;;;;;;;;5073207;28;20267;-74
2023/05/02 10:24:53;;;;;;;22.60;17.47;;;;;;;;;;5058704;28;20271;-72
2023/05/02 10:27:20;;;;;;;18.88;15.30;;;;;;;;;;5059253;28;20212;-74
2023/05/02 10:29:48;;;;;;;16.00;14.40;;;;;;;;;;5066991;28;20290;-74
2023/05/02 10:32:17;;;;;;;15.75;14.00;;;;;;;;;;5066505;28;20292;-74
2023/05/02 10:34:45;;;;;;;18.73;14.25;;;;;;;;;;5055069;28;20390;-75
2023/05/02 10:37:13;;;;;;;15.95;14.25;;;;;;;;;;5056677;28;20239;-74
2023/05/02 10:39:40;;;;;;;15.90;14.20;;;;;;;;;;5067447;28;20584;-74
2023/05/02 10:42:07;;;;;;;13.15;11.88;;;;;;;;;;5068921;28;20693;-74
2023/05/02 10:44:40;;;;;;;14.85;13.25;;;;;;;;;;5067917;28;20259;-71
2023/05/02 10:47:20;;;;;;;13.35;11.95;;;;;;;;;;5065726;28;20641;-74
2023/05/02 10:49:58;;;;;;;13.75;12.52;;;;;;;;;;5075318;28;20227;-75
2023/05/02 10:52:34;;;;;;;14.02;12.63;;;;;;;;;;5067495;28;20291;-73
2023/05/02 10:55:20;;;;;;;14.60;12.35;;;;;;;;;;5074831;28;20437;-73
2023/05/02 10:57:59;;;;;;;13.10;11.80;;;;;;;;;;5065403;28;20274;-73
2023/05/02 11:00:32;;;;;;;14.40;13.00;;;;;;;;;;5046758;28;20603;-73
2023/05/02 11:03:00;;;;;;;13.88;12.45;;;;;;;;;;5051356;28;20205;-75
2023/05/02 11:05:28;;;;;;;13.02;11.73;;;;;;;;;;5067711;28;20477;-74
2023/05/02 11:08:14;;;;;;;12.10;10.98;;;;;;;;;;5066203;28;20297;-74
2023/05/02 11:10:42;;;;;;;12.73;11.48;;;;;;;;;;5058773;28;20590;-74
2023/05/02 11:13:11;;;;;;;13.18;11.80;;;;;;;;;;5060859;28;20525;-74
2023/05/02 11:15:45;;;;;;;13.05;11.57;;;;;;;;;;5060780;28;20205;-73
2023/05/02 11:18:13;;;;;;;14.48;13.00;;;;;;;;;;5078491;28;20205;-74
2023/05/02 11:20:44;;;;;;;12.80;11.50;;;;;;;;;;5076851;28;20320;-74
2023/05/02 11:23:15;;;;;;;12.20;11.10;;;;;;;;;;5050647;28;20210;-74
2023/05/02 11:25:46;;;;;;;11.63;10.60;;;;;;;;;;5074190;28;20205;-74
2023/05/02 11:28:52;;;;;;;11.68;10.48;;;;;;;;;;5054487;28;20197;-74
2023/05/02 11:31:26;;;;;;;11.07;10.10;;;;;;;;;;5017547;28;20225;-73
2023/05/02 11:33:56;;;;;;;13.57;12.25;;;;;;;;;;5016345;28;20669;-73
2023/05/02 11:36:34;;;;;;;13.70;12.35;;;;;;;;;;5038211;28;20240;-75
2023/05/02 11:39:04;;;;;;;13.45;12.07;;;;;;;;;;5079185;28;20211;-74
2023/05/02 11:41:38;;;;;;;13.00;11.70;;;;;;;;;;5072948;28;20279;-73
2023/05/02 11:44:06;;;;;;;13.80;12.05;;;;;;;;;;5081777;28;20659;-72
2023/05/02 11:46:36;;;;;;;12.93;11.60;;;;;;;;;;5072373;28;20201;-72
2023/05/02 11:49:03;;;;;;;14.02;12.52;;;;;;;;;;5068012;28;20290;-74
2023/05/02 11:51:35;;;;;;;12.88;11.68;;;;;;;;;;5058864;28;20276;-73
2023/05/02 11:54:02;;;;;;;12.27;11.05;;;;;;;;;;5068762;28;20255;-74
2023/05/02 11:56:30;;;;;;;12.65;11.45;;;;;;;;;;5074876;28;20206;-74
2023/05/02 11:58:58;;;;;;;11.73;10.30;;;;;;;;;;5053465;28;20648;-75
2023/05/02 12:01:31;;;;;;;11.60;10.40;;;;;;;;;;5070544;28;20241;-75
2023/05/02 12:04:06;;;;;;;11.60;10.38;;;;;;;;;;5052598;28;20271;-74
2023/05/02 12:06:34;;;;;;;11.13;9.88;;;;;;;;;;5077863;28;20205;-73
2023/05/02 12:09:08;;;;;;;11.32;9.90;;;;;;;;;;5077478;28;20584;-75
2023/05/02 12:11:37;;;;;;;11.70;9.65;;;;;;;;;;5071861;28;20263;-74
2023/05/02 12:14:05;;;;;;;10.50;9.50;;;;;;;;;;5059995;28;20317;-75
2023/05/02 12:16:33;;;;;;;10.70;9.55;;;;;;;;;;5072175;28;20670;-73
2023/05/02 12:19:01;;;;;;;12.73;9.70;;;;;;;;;;5089113;28;20624;-74
2023/05/02 12:21:37;;;;;;;10.35;9.45;;;;;;;;;;5081606;28;20325;-74
2023/05/02 12:24:04;;;;;;;10.30;9.30;;;;;;;;;;5083239;28;20477;-74
2023/05/02 12:26:32;;;;;;;10.65;9.55;;;;;;;;;;5048049;28;20201;-75
2023/05/02 12:29:01;;;;;;;10.73;9.65;;;;;;;;;;5080678;28;20232;-74
2023/05/02 12:31:30;;;;;;;11.03;9.93;;;;;;;;;;5079376;28;20226;-73
2023/05/02 12:33:59;;;;;;;10.82;9.60;;;;;;;;;;5073012;28;20655;-72
2023/05/02 12:36:28;;;;;;;10.07;9.07;;;;;;;;;;5057718;28;20205;-75
2023/05/02 12:38:58;;;;;;;11.55;10.35;;;;;;;;;;5056721;28;20236;-71
2023/05/02 12:41:36;;;;;;;11.43;10.32;;;;;;;;;;5053978;28;20229;-73
2023/05/02 12:44:04;;;;;;;11.52;10.43;;;;;;;;;;5078647;28;20198;-74
2023/05/02 12:46:32;;;;;;;12.63;10.25;;;;;;;;;;5070739;28;20220;-73
2023/05/02 12:49:10;;;;;;;11.05;10.05;;;;;;;;;;5080976;28;20209;-75
2023/05/02 12:51:39;;;;;;;12.40;10.57;;;;;;;;;;5052010;28;20213;-74
2023/05/02 12:54:06;;;;;;;10.10;9.13;;;;;;;;;;5071306;28;20244;-72
2023/05/02 12:56:42;;;;;;;10.10;9.02;;;;;;;;;;5058108;28;20220;-74
2023/05/02 12:59:11;;;;;;;10.25;9.25;;;;;;;;;;5081417;28;20313;-74
2023/05/02 13:01:38;;;;;;;10.32;9.32;;;;;;;;;;5065318;28;20308;-74
2023/05/02 13:04:05;;;;;;;11.30;10.10;;;;;;;;;;5072963;28;20605;-73
2023/05/02 13:06:36;;;;;;;9.73;8.88;;;;;;;;;;5073721;28;20368;-74
2023/05/02 13:09:04;;;;;;;11.50;10.30;;;;;;;;;;5073433;28;20341;-73
2023/05/02 13:11:31;;;;;;;11.25;10.10;;;;;;;;;;5079146;28;20227;-74
2023/05/02 13:14:00;;;;;;;11.23;10.05;;;;;;;;;;5057226;28;20201;-72
2023/05/02 13:16:30;;;;;;;10.52;9.45;;;;;;;;;;5072287;28;20190;-73
2023/05/02 13:18:57;;;;;;;10.90;9.48;;;;;;;;;;5075009;28;20292;-72
2023/05/02 13:21:24;;;;;;;10.55;9.52;;;;;;;;;;5075647;28;20275;-74
2023/05/02 13:23:54;;;;;;;10.35;9.35;;;;;;;;;;5079198;28;20206;-74
2023/05/02 13:26:21;;;;;;;11.63;9.70;;;;;;;;;;5069871;28;20204;-74
2023/05/02 13:28:48;;;;;;;9.77;8.63;;;;;;;;;;5086789;28;20252;-74
2023/05/02 13:31:16;;;;;;;10.95;8.63;;;;;;;;;;5082063;28;20216;-75
2023/05/02 13:33:46;;;;;;;9.18;8.27;;;;;;;;;;5073529;28;20580;-73
2023/05/02 13:36:13;;;;;;;9.15;8.35;;;;;;;;;;5071680;28;20194;-74
2023/05/02 13:38:43;;;;;;;9.25;8.35;;;;;;;;;;5078891;28;20400;-75
2023/05/02 13:41:10;;;;;;;9.55;8.55;;;;;;;;;;5052866;28;20349;-74
2023/05/02 13:43:39;;;;;;;9.32;8.43;;;;;;;;;;5071199;28;20581;-75
2023/05/02 13:46:07;;;;;;;9.95;8.98;;;;;;;;;;5053795;28;20205;-72
2023/05/02 13:48:41;;;;;;;10.25;9.20;;;;;;;;;;5047601;28;20296;-75
2023/05/02 13:51:09;;;;;;;12.13;8.27;;;;;;;;;;5087671;28;20220;-74
2023/05/02 13:53:37;;;;;;;11.55;8.35;;;;;;;;;;5060944;28;20296;-74
2023/05/02 13:56:04;;;;;;;10.40;7.95;;;;;;;;;;5069467;28;20209;-73
2023/05/02 13:58:32;;;;;;;10.63;8.10;;;;;;;;;;5068478;28;20205;-73
2023/05/02 14:00:59;;;;;;;9.70;8.70;;;;;;;;;;5070519;28;20685;-74
2023/05/02 14:03:28;;;;;;;9.07;8.13;;;;;;;;;;5051681;28;20577;-73
2023/05/02 14:05:55;;;;;;;8.68;7.75;;;;;;;;;;5076113;28;20212;-75
2023/05/02 14:08:23;;;;;;;9.45;8.18;;;;;;;;;;5074805;28;20714;-73
2023/05/02 14:10:50;;;;;;;12.95;9.85;;;;;;;;;;5072212;28;20245;-74
2023/05/02 14:13:17;;;;;;;11.00;9.88;;;;;;;;;;5063200;28;20683;-73
2023/05/02 14:15:44;;;;;;;9.57;8.68;;;;;;;;;;5066123;28;20205;-74
2023/05/02 14:18:12;;;;;;;9.73;8.75;;;;;;;;;;5074067;28;20329;-74
2023/05/02 14:20:39;;;;;;;10.10;9.07;;;;;;;;;;5053145;28;20258;-74
2023/05/02 14:23:07;;;;;;;11.35;9.82;;;;;;;;;;5077427;28;20766;-74
2023/05/02 14:25:35;;;;;;;10.23;9.13;;;;;;;;;;5052567;28;20303;-74
2023/05/02 14:28:02;;;;;;;10.65;9.60;;;;;;;;;;5051043;28;20875;-74
2023/05/02 14:30:33;;;;;;;10.65;9.63;;;;;;;;;;5058645;28;20279;-74
2023/05/02 14:33:00;;;;;;;10.68;9.57;;;;;;;;;;5051426;28;20194;-74
2023/05/02 14:35:27;;;;;;;11.35;10.07;;;;;;;;;;5076612;28;20263;-74
2023/05/02 14:37:55;;;;;;;12.48;11.18;;;;;;;;;;5052510;28;20236;-74
2023/05/02 14:40:22;;;;;;;13.68;12.30;;;;;;;;;;5071620;28;20655;-74